Hauptseite
METAR-TAF:

METAR-TAF

Flughäfen :

Flughafen Rodez-Aveyron

Rodez, Frankreich

Breite: 44-24N, Länge: 002-29E, Höhe: 581 m

Beobachtung

Neuester Wetterbericht von vor 28 Minuten, um 11:00 UTC
Wind 5 kt aus Nord, variierte zwischen Nordwest und Nordost
Temperatur 27°C
Luftfeuchtigkeit 54%
Luftdruck 1018 hPa
Sichtweite 10 km oder mehr
keine Wolken unter 1500 m und keine Kumulonimbus oder Gewitterwolken

METAR: LFCR 191100Z AUTO 35005KT 320V040 CAVOK 27/17 Q1018 NOSIG

Zeit: 13:28 (11:28 UTC)

Prognose

Neuester Wetterbericht von vor 6 Stunden und 28 Minuten, um 05:00 UTC
Gültige Prognose vom 19 um 06 UTC bis 20 um 06 UTC
Wind 2 kt aus unterschiedlichen Richtungen
Sichtweite 10 km oder mehr
keine Wolken unter 1500 m und keine Kumulonimbus oder Gewitterwolken
Zeitweise
vom 19 um 12 UTC bis 19 um 18 UTC
Wind 8 kt aus Nordwest

TAF: LFCR 190500Z 1906/2006 VRB02KT CAVOK TEMPO 1912/1918 32008KT

Wetterbeobachtungen und Prognosen von mehr als 4000 Flughäfen (METAR und TAF Bericht).

Die verfügbaren Stationen werden durch gelbe und rote Markierungen auf der Karte dargestellt.

Führen Sie die Maus auf sie, um den Namen der Station zu sehen.

Darauf klicken, um die Beobachtung von Wetterbeobachtungen und Prognosen zu sehen.

Um die Karte zu ändern : klicken Sie auf den grünen Tasten mit einem schwarzen Kreuz Zum Vergrößern, auf den grünen Button mit einem Gedankenstrich zu verkleinern, oder auf die grünen Pfeile für benachbarte Karten.


METAR-TAF: